Time;durP1;ratioP1;P1;durP2;ratioP2;P2;SDS_P1;SDS_P2;PMS_P1;PMS_P2;Temp;Humidity;BMP_temperature;BMP_pressure;BME280_temperature;BME280_humidity;BME280_pressure;Samples;Min_cycle;Max_cycle;Signal;HPM_P1;HPM_P2
2021/05/27 00:00:48;;;;;;;1.33;1.33;;;11.00;99.90;;;;;;5028617;28;20199;-77
2021/05/27 00:03:14;;;;;;;0.50;0.50;;;11.00;99.90;;;;;;5013923;28;20691;-75
2021/05/27 00:05:41;;;;;;;0.50;0.40;;;11.00;99.90;;;;;;5014960;28;20195;-77
2021/05/27 00:08:07;;;;;;;1.67;1.00;;;11.00;99.90;;;;;;5014263;28;20215;-76
2021/05/27 00:10:35;;;;;;;0.50;0.50;;;11.00;99.90;;;;;;5014869;28;20577;-77
2021/05/27 00:13:02;;;;;;;2.17;1.67;;;11.00;99.90;;;;;;5015023;28;20590;-79
2021/05/27 00:15:29;;;;;;;0.50;0.50;;;11.00;99.90;;;;;;5014316;28;20197;-77
2021/05/27 00:17:56;;;;;;;0.60;0.60;;;10.90;99.90;;;;;;5013456;28;20293;-80
2021/05/27 00:20:22;;;;;;;0.50;0.40;;;10.90;99.90;;;;;;5014561;28;20226;-77
2021/05/27 00:22:50;;;;;;;1.98;1.67;;;10.90;99.90;;;;;;5014137;28;20203;-77
2021/05/27 00:25:16;;;;;;;0.80;0.80;;;10.90;99.90;;;;;;5014767;28;20206;-77
2021/05/27 00:27:44;;;;;;;1.17;0.95;;;10.90;99.90;;;;;;5014232;28;20226;-77
2021/05/27 00:30:13;;;;;;;1.63;1.52;;;10.90;99.90;;;;;;5022781;28;20186;-75
2021/05/27 00:32:39;;;;;;;2.90;0.95;;;10.90;99.90;;;;;;5033204;28;20212;-78
2021/05/27 00:35:07;;;;;;;0.50;0.40;;;10.90;99.90;;;;;;5034038;28;20252;-77
2021/05/27 00:37:33;;;;;;;2.78;2.58;;;10.90;99.90;;;;;;5032641;28;20694;-78
2021/05/27 00:40:00;;;;;;;0.93;0.93;;;10.90;99.90;;;;;;5033523;28;20576;-77
2021/05/27 00:42:26;;;;;;;0.60;0.60;;;10.90;99.90;;;;;;5033606;28;20263;-78
2021/05/27 00:45:01;;;;;;;0.60;0.60;;;10.90;99.90;;;;;;5034444;28;20202;-78
2021/05/27 00:47:27;;;;;;;0.70;0.70;;;10.90;99.90;;;;;;5033319;28;20411;-77
2021/05/27 00:49:54;;;;;;;1.77;0.88;;;10.90;99.90;;;;;;5034246;28;20607;-79
2021/05/27 00:52:21;;;;;;;0.80;0.60;;;10.90;99.90;;;;;;5033966;28;20196;-78
2021/05/27 00:54:48;;;;;;;1.52;1.42;;;10.90;99.90;;;;;;5033819;28;20237;-77
2021/05/27 00:57:30;;;;;;;3.50;3.40;;;11.00;99.90;;;;;;5031761;28;20214;-77
2021/05/27 00:59:56;;;;;;;0.98;0.65;;;10.90;99.90;;;;;;5021883;28;20214;-77
2021/05/27 01:02:22;;;;;;;0.80;0.60;;;11.00;99.90;;;;;;5032443;28;20209;-78
2021/05/27 01:04:49;;;;;;;2.95;2.45;;;11.00;99.90;;;;;;5033981;28;20199;-80
2021/05/27 01:07:15;;;;;;;0.73;0.73;;;11.00;99.90;;;;;;5033226;28;20218;-79
2021/05/27 01:09:42;;;;;;;1.92;1.42;;;11.00;99.90;;;;;;5033396;28;20194;-78
2021/05/27 01:12:09;;;;;;;3.17;1.15;;;11.00;99.90;;;;;;5032919;28;20198;-78
2021/05/27 01:17:23;;;;;;;0.50;0.40;;;11.00;99.90;;;;;;5032533;28;20203;-77
2021/05/27 01:19:49;;;;;;;0.60;0.60;;;11.00;99.90;;;;;;5033316;28;20556;-77
2021/05/27 01:22:16;;;;;;;1.55;1.45;;;11.10;99.90;;;;;;5032972;28;20201;-76
2021/05/27 01:24:43;;;;;;;0.60;0.60;;;11.10;99.90;;;;;;5032985;28;20201;-77
2021/05/27 01:27:09;;;;;;;3.08;2.80;;;11.10;99.90;;;;;;5032985;28;20224;-78
2021/05/27 01:29:35;;;;;;;1.92;1.83;;;11.10;99.90;;;;;;5021355;28;20192;-78
2021/05/27 01:32:01;;;;;;;1.45;1.35;;;11.10;99.90;;;;;;5029256;28;20193;-77
2021/05/27 01:34:28;;;;;;;1.95;1.80;;;11.10;99.90;;;;;;5032795;28;20243;-76
2021/05/27 01:36:54;;;;;;;0.50;0.40;;;11.00;99.90;;;;;;5032082;28;20199;-77
2021/05/27 01:39:21;;;;;;;0.60;0.60;;;11.00;99.90;;;;;;5032746;28;20217;-77
2021/05/27 01:41:49;;;;;;;0.50;0.40;;;11.00;99.90;;;;;;5032593;28;20198;-79
2021/05/27 01:44:15;;;;;;;1.50;1.50;;;11.00;99.90;;;;;;5032235;28;20194;-79
2021/05/27 01:46:42;;;;;;;1.88;1.30;;;10.90;99.90;;;;;;5032578;28;20201;-79
2021/05/27 01:49:08;;;;;;;2.05;1.85;;;10.90;99.90;;;;;;5032468;28;20244;-77
2021/05/27 01:51:34;;;;;;;1.35;0.70;;;10.90;99.90;;;;;;5033426;28;20201;-78
2021/05/27 01:54:00;;;;;;;1.33;1.33;;;10.80;99.90;;;;;;5032911;28;20204;-78
2021/05/27 01:56:27;;;;;;;2.15;2.05;;;10.80;99.90;;;;;;5032142;28;20674;-78
2021/05/27 01:59:02;;;;;;;1.40;0.60;;;10.80;99.90;;;;;;5024345;28;20289;-78
2021/05/27 02:01:28;;;;;;;1.52;1.52;;;10.80;99.90;;;;;;5024600;28;20555;-78
2021/05/27 02:03:54;;;;;;;0.60;0.60;;;10.70;99.90;;;;;;5032527;28;20666;-77
2021/05/27 02:06:20;;;;;;;0.80;0.73;;;10.70;99.90;;;;;;5032407;28;20194;-76
2021/05/27 02:11:28;;;;;;;3.72;3.42;;;10.70;99.90;;;;;;5031186;28;20741;-80
2021/05/27 02:13:55;;;;;;;0.73;0.73;;;10.70;99.90;;;;;;5032731;28;20197;-77
2021/05/27 02:16:21;;;;;;;3.80;2.25;;;10.60;99.90;;;;;;5031798;28;20259;-76
2021/05/27 02:18:47;;;;;;;0.82;0.82;;;10.60;99.90;;;;;;5031026;28;20705;-78
2021/05/27 02:21:13;;;;;;;0.93;0.93;;;10.50;99.90;;;;;;5032239;28;20205;-74
2021/05/27 02:23:39;;;;;;;0.50;0.40;;;10.50;99.90;;;;;;5032428;28;20217;-77
2021/05/27 02:26:06;;;;;;;1.65;1.55;;;10.50;99.90;;;;;;5032122;28;20748;-80
2021/05/27 02:28:33;;;;;;;0.75;0.75;;;10.50;99.90;;;;;;5024016;28;20257;-78
2021/05/27 02:30:59;;;;;;;3.03;2.83;;;10.50;99.90;;;;;;5023652;28;20196;-77
2021/05/27 02:33:25;;;;;;;0.50;0.40;;;10.50;99.90;;;;;;5031865;28;20208;-76
2021/05/27 02:35:51;;;;;;;1.40;1.33;;;10.50;99.90;;;;;;5032364;28;20205;-78
2021/05/27 02:38:18;;;;;;;1.27;1.17;;;10.50;99.90;;;;;;5031792;28;20234;-78
2021/05/27 02:40:44;;;;;;;3.35;2.25;;;10.50;99.90;;;;;;5030986;28;20197;-77
2021/05/27 02:43:10;;;;;;;0.50;0.40;;;10.40;99.90;;;;;;5031212;28;20194;-77
2021/05/27 02:45:37;;;;;;;2.30;1.80;;;10.40;99.90;;;;;;5032737;28;20197;-78
2021/05/27 02:48:04;;;;;;;1.65;1.55;;;10.40;99.90;;;;;;5034849;28;20240;-80
2021/05/27 02:50:30;;;;;;;1.45;1.45;;;10.40;99.90;;;;;;5035520;28;20205;-77
2021/05/27 02:52:56;;;;;;;5.03;1.20;;;10.40;99.90;;;;;;5035180;28;20248;-78
2021/05/27 02:55:22;;;;;;;0.63;0.63;;;10.40;99.90;;;;;;5035649;28;20202;-78
2021/05/27 02:57:49;;;;;;;0.50;0.40;;;10.40;99.90;;;;;;5029133;28;20236;-78
2021/05/27 03:00:16;;;;;;;0.50;0.40;;;10.40;99.90;;;;;;5025071;28;20243;-78
2021/05/27 03:02:43;;;;;;;0.80;0.80;;;10.30;99.90;;;;;;5034457;28;20286;-80
2021/05/27 03:05:10;;;;;;;0.60;0.50;;;10.30;99.90;;;;;;5035560;28;20654;-79
2021/05/27 03:07:37;;;;;;;0.50;0.40;;;10.30;99.90;;;;;;5034746;28;20214;-80
2021/05/27 03:10:04;;;;;;;0.60;0.60;;;10.30;99.90;;;;;;5035537;28;20223;-80
2021/05/27 03:12:30;;;;;;;1.58;1.48;;;10.30;99.90;;;;;;5034786;28;20213;-77
2021/05/27 03:14:56;;;;;;;1.00;1.00;;;10.40;99.90;;;;;;5034835;28;20232;-77
2021/05/27 03:17:22;;;;;;;1.20;1.10;;;10.40;99.90;;;;;;5034601;28;20584;-78
2021/05/27 03:19:49;;;;;;;1.42;1.42;;;10.40;99.90;;;;;;5034989;28;20200;-78
2021/05/27 03:22:16;;;;;;;0.50;0.40;;;10.40;99.90;;;;;;5034407;28;20195;-77
2021/05/27 03:24:42;;;;;;;4.90;4.45;;;10.40;99.90;;;;;;5035168;28;20205;-77
2021/05/27 03:27:09;;;;;;;1.58;1.30;;;10.30;99.90;;;;;;5034616;28;20668;-79
2021/05/27 03:29:36;;;;;;;2.65;2.45;;;10.20;99.90;;;;;;5015966;28;20196;-78
2021/05/27 03:32:02;;;;;;;3.55;1.65;;;10.20;99.90;;;;;;5030716;28;20197;-78
2021/05/27 03:34:28;;;;;;;0.50;0.40;;;10.10;99.90;;;;;;5034436;28;20216;-80
2021/05/27 03:36:55;;;;;;;0.50;0.40;;;10.10;99.90;;;;;;5034040;28;20199;-80
2021/05/27 03:39:21;;;;;;;4.00;2.45;;;10.00;99.90;;;;;;5034397;28;20233;-79
2021/05/27 03:41:48;;;;;;;2.10;1.60;;;10.00;99.90;;;;;;5033712;28;20196;-79
2021/05/27 03:44:14;;;;;;;0.50;0.40;;;10.00;99.90;;;;;;5034808;28;20199;-80
2021/05/27 03:46:40;;;;;;;0.88;0.88;;;9.90;99.90;;;;;;5036072;28;20202;-79
2021/05/27 03:49:06;;;;;;;0.50;0.50;;;9.90;99.90;;;;;;5035964;28;20585;-79
2021/05/27 03:51:32;;;;;;;4.90;4.50;;;10.00;99.90;;;;;;5036152;28;20237;-79
2021/05/27 03:53:59;;;;;;;1.08;1.08;;;9.90;99.90;;;;;;5035596;28;20197;-80
2021/05/27 03:56:26;;;;;;;3.45;2.35;;;9.90;99.90;;;;;;5035695;28;20200;-80
2021/05/27 04:01:37;;;;;;;1.60;1.05;;;9.90;99.90;;;;;;5021988;28;20251;-80
2021/05/27 04:09:33;;;;;;;1.50;1.40;;;9.80;99.90;;;;;;5035930;28;20294;-80
2021/05/27 04:14:39;;;;;;;0.50;0.40;;;9.70;99.90;;;;;;5034516;28;20219;-79
2021/05/27 04:17:06;;;;;;;1.58;1.30;;;9.80;99.90;;;;;;5034715;28;20199;-80
2021/05/27 04:19:32;;;;;;;10.27;2.15;;;9.70;99.90;;;;;;5035233;28;20216;-79
2021/05/27 04:21:58;;;;;;;2.15;1.98;;;9.70;99.90;;;;;;5034708;28;20196;-79
2021/05/27 04:24:25;;;;;;;1.13;1.08;;;9.70;99.90;;;;;;5034998;28;20621;-78
2021/05/27 04:26:52;;;;;;;0.90;0.90;;;9.70;99.90;;;;;;5035384;28;20255;-80
2021/05/27 04:29:18;;;;;;;0.70;0.55;;;9.70;99.90;;;;;;5018236;28;20231;-80
2021/05/27 04:31:44;;;;;;;0.50;0.40;;;9.70;99.90;;;;;;5020554;28;20197;-78
2021/05/27 04:34:11;;;;;;;0.80;0.77;;;9.70;99.90;;;;;;5014286;28;20300;-78
2021/05/27 04:36:37;;;;;;;0.50;0.40;;;9.70;99.90;;;;;;5012884;28;20561;-78
2021/05/27 04:39:03;;;;;;;3.60;3.42;;;9.70;99.90;;;;;;5013293;28;20229;-80
2021/05/27 04:41:29;;;;;;;4.97;2.75;;;9.70;99.90;;;;;;5012596;28;20201;-78
2021/05/27 04:43:57;;;;;;;0.70;0.60;;;9.70;99.90;;;;;;5013478;28;20577;-78
2021/05/27 04:46:25;;;;;;;0.50;0.40;;;9.60;99.90;;;;;;5012659;28;20682;-77
2021/05/27 04:48:52;;;;;;;0.50;0.40;;;9.70;99.90;;;;;;5013151;28;20699;-80
2021/05/27 04:51:18;;;;;;;0.98;0.98;;;9.70;99.90;;;;;;5013177;28;20713;-80
2021/05/27 04:53:44;;;;;;;2.78;1.67;;;9.70;99.90;;;;;;5013821;28;20203;-79
2021/05/27 04:56:10;;;;;;;28.98;8.38;;;9.70;99.90;;;;;;5013165;28;20207;-79
2021/05/27 04:58:37;;;;;;;3.35;3.10;;;9.70;99.90;;;;;;5017292;28;20221;-79
2021/05/27 05:01:04;;;;;;;5.55;2.22;;;9.70;99.90;;;;;;5024655;28;20207;-80
2021/05/27 05:03:30;;;;;;;0.50;0.43;;;9.70;99.90;;;;;;5032621;28;20235;-80
2021/05/27 05:05:56;;;;;;;0.80;0.80;;;9.70;99.90;;;;;;5014387;28;20280;-79
2021/05/27 05:08:23;;;;;;;0.50;0.40;;;9.70;99.90;;;;;;5009590;28;20212;-78
2021/05/27 05:10:49;;;;;;;1.60;1.50;;;9.70;99.90;;;;;;5011742;28;20209;-78
2021/05/27 05:13:15;;;;;;;1.95;1.63;;;9.60;99.90;;;;;;5031098;28;20247;-77
2021/05/27 05:15:43;;;;;;;0.60;0.55;;;9.60;99.90;;;;;;5031370;28;20204;-76
2021/05/27 05:18:12;;;;;;;1.55;0.95;;;9.60;99.90;;;;;;5030779;28;20242;-75
2021/05/27 05:20:40;;;;;;;2.28;2.17;;;9.60;99.90;;;;;;5031583;28;20674;-77
2021/05/27 05:23:06;;;;;;;0.50;0.50;;;9.60;99.90;;;;;;5031177;28;20192;-78
2021/05/27 05:25:34;;;;;;;1.67;1.58;;;9.60;99.90;;;;;;5031037;28;20196;-77
2021/05/27 05:28:01;;;;;;;3.70;3.40;;;9.60;99.90;;;;;;4986531;28;1051593;-77
2021/05/27 05:30:28;;;;;;;2.70;2.47;;;9.60;99.90;;;;;;5023679;28;20189;-80
2021/05/27 05:32:55;;;;;;;0.50;0.40;;;9.60;99.90;;;;;;5031552;28;20200;-75
2021/05/27 05:35:23;;;;;;;0.70;0.70;;;9.60;99.90;;;;;;5031343;28;20215;-77
2021/05/27 05:37:50;;;;;;;0.90;0.90;;;9.60;99.90;;;;;;5031191;28;20220;-76
2021/05/27 05:40:19;;;;;;;0.90;0.90;;;9.60;99.90;;;;;;5031515;28;20232;-79
2021/05/27 05:42:46;;;;;;;2.15;1.95;;;9.60;99.90;;;;;;5030337;28;20195;-76
2021/05/27 05:45:14;;;;;;;0.50;0.45;;;9.70;99.90;;;;;;5031598;28;20628;-76
2021/05/27 05:47:40;;;;;;;0.50;0.43;;;9.60;99.90;;;;;;5031167;28;20214;-79
2021/05/27 05:50:08;;;;;;;0.68;0.68;;;9.70;99.90;;;;;;5031661;28;20205;-78
2021/05/27 05:52:36;;;;;;;2.65;1.55;;;9.70;99.90;;;;;;5031423;28;20279;-77
2021/05/27 05:55:02;;;;;;;0.50;0.40;;;9.70;99.90;;;;;;5031010;28;20247;-77
2021/05/27 05:57:28;;;;;;;0.50;0.40;;;9.70;99.90;;;;;;5027689;28;20659;-76
2021/05/27 05:59:54;;;;;;;2.15;1.10;;;9.70;99.90;;;;;;5019236;28;20556;-76
2021/05/27 06:02:21;;;;;;;0.63;0.63;;;9.80;99.90;;;;;;5010634;28;20196;-77
2021/05/27 06:04:47;;;;;;;1.58;1.58;;;9.80;99.90;;;;;;5010762;28;20329;-78
2021/05/27 06:07:13;;;;;;;1.58;1.48;;;9.80;99.90;;;;;;5002049;28;20203;-76
2021/05/27 06:09:40;;;;;;;0.55;0.40;;;9.80;99.90;;;;;;5012001;28;20184;-76
2021/05/27 06:12:07;;;;;;;0.50;0.50;;;9.90;99.90;;;;;;5012016;28;20221;-76
2021/05/27 06:14:35;;;;;;;0.88;0.70;;;9.90;99.90;;;;;;5002415;28;20260;-78
2021/05/27 06:17:01;;;;;;;0.50;0.40;;;9.90;99.90;;;;;;4991644;28;20229;-78
2021/05/27 06:19:27;;;;;;;0.50;0.40;;;9.90;99.90;;;;;;4991837;28;20227;-76
2021/05/27 06:21:53;;;;;;;5.03;3.25;;;9.90;99.90;;;;;;4994394;28;20250;-77
2021/05/27 06:24:20;;;;;;;0.70;0.68;;;9.90;99.90;;;;;;4996104;28;20202;-74
2021/05/27 06:26:47;;;;;;;5.75;1.95;;;9.90;99.90;;;;;;4995613;28;20324;-76
2021/05/27 06:29:13;;;;;;;3.50;2.78;;;9.90;99.90;;;;;;5019319;28;20225;-74
2021/05/27 06:31:43;;;;;;;0.50;0.40;;;9.90;99.90;;;;;;5027837;28;20658;-76
2021/05/27 06:34:10;;;;;;;5.43;1.17;;;9.90;99.90;;;;;;5034521;28;20199;-79
2021/05/27 06:36:36;;;;;;;1.42;1.33;;;9.90;99.90;;;;;;5033932;28;20196;-77
2021/05/27 06:39:03;;;;;;;2.88;1.70;;;9.90;99.90;;;;;;5034325;28;20233;-77
2021/05/27 06:41:29;;;;;;;0.50;0.40;;;9.90;99.90;;;;;;5034140;28;20227;-76
2021/05/27 06:43:56;;;;;;;1.02;1.02;;;9.90;99.90;;;;;;5033729;28;20537;-76
2021/05/27 06:46:22;;;;;;;9.85;4.65;;;9.80;99.90;;;;;;5014480;28;20194;-74
2021/05/27 06:48:48;;;;;;;0.50;0.40;;;9.80;99.90;;;;;;5014431;28;20570;-79
2021/05/27 06:51:15;;;;;;;1.02;1.02;;;9.80;99.90;;;;;;5014523;28;20264;-76
2021/05/27 06:53:41;;;;;;;2.90;1.45;;;9.80;99.90;;;;;;5014683;28;20303;-75
2021/05/27 06:56:07;;;;;;;1.15;1.05;;;9.80;99.90;;;;;;5014902;28;20206;-78
2021/05/27 06:58:35;;;;;;;0.63;0.63;;;9.70;99.90;;;;;;5019040;28;20236;-77
2021/05/27 07:01:02;;;;;;;0.50;0.50;;;9.70;99.90;;;;;;5026120;28;20738;-77
2021/05/27 07:03:28;;;;;;;0.85;0.60;;;9.80;99.90;;;;;;5034483;28;20204;-76
2021/05/27 07:05:57;;;;;;;3.42;1.75;;;9.80;99.90;;;;;;5035002;28;20223;-76
2021/05/27 07:08:23;;;;;;;8.43;4.40;;;9.80;99.90;;;;;;5035098;28;20300;-77
2021/05/27 07:10:49;;;;;;;1.70;1.60;;;9.80;99.90;;;;;;5034975;28;20190;-77
2021/05/27 07:13:16;;;;;;;2.00;1.90;;;9.90;99.90;;;;;;5034897;28;20196;-76
2021/05/27 07:15:42;;;;;;;0.73;0.73;;;9.90;99.90;;;;;;5035387;28;20217;-76
2021/05/27 07:18:09;;;;;;;0.50;0.50;;;9.90;99.90;;;;;;5034481;28;20612;-77
2021/05/27 07:20:37;;;;;;;3.47;3.20;;;9.80;99.90;;;;;;5034202;28;20228;-76
2021/05/27 07:23:04;;;;;;;0.50;0.40;;;9.80;99.90;;;;;;5034480;28;20625;-77
2021/05/27 07:25:30;;;;;;;1.45;1.40;;;9.80;99.90;;;;;;5035023;28;20199;-76
2021/05/27 07:27:57;;;;;;;0.50;0.40;;;9.80;99.90;;;;;;5027233;28;20574;-76
2021/05/27 07:30:26;;;;;;;2.63;2.17;;;9.80;99.90;;;;;;5025472;28;20206;-78
2021/05/27 07:32:52;;;;;;;2.83;2.63;;;9.80;99.90;;;;;;5032881;28;20219;-77
2021/05/27 07:35:19;;;;;;;3.20;2.25;;;9.70;99.90;;;;;;5035175;28;20207;-78
2021/05/27 07:37:46;;;;;;;2.90;2.22;;;9.80;99.90;;;;;;5033945;28;20265;-77
2021/05/27 07:40:12;;;;;;;1.95;1.85;;;9.80;99.90;;;;;;5034763;28;20270;-79
2021/05/27 07:42:39;;;;;;;2.78;2.58;;;9.90;99.90;;;;;;5034057;28;20700;-77
2021/05/27 07:45:06;;;;;;;1.58;1.48;;;9.80;99.90;;;;;;5023447;28;20197;-77
2021/05/27 07:47:34;;;;;;;5.47;3.05;;;9.80;99.90;;;;;;5013795;28;20218;-77
2021/05/27 07:50:00;;;;;;;5.05;1.13;;;9.80;99.90;;;;;;5014472;28;20264;-80
2021/05/27 07:52:28;;;;;;;0.60;0.50;;;9.80;99.90;;;;;;5014335;28;20202;-79
2021/05/27 07:54:54;;;;;;;1.77;1.13;;;9.80;99.90;;;;;;5013204;28;20561;-78
2021/05/27 07:57:20;;;;;;;2.08;1.98;;;9.80;99.90;;;;;;5012175;28;20201;-77
2021/05/27 07:59:47;;;;;;;0.50;0.40;;;9.80;99.90;;;;;;5020786;28;20214;-79
2021/05/27 08:02:13;;;;;;;1.95;0.98;;;9.80;99.90;;;;;;5013078;28;20193;-80
2021/05/27 08:04:41;;;;;;;0.95;0.95;;;9.80;99.90;;;;;;5012667;28;20200;-78
2021/05/27 08:07:08;;;;;;;0.85;0.85;;;9.80;99.90;;;;;;5012836;28;20225;-78
2021/05/27 08:09:35;;;;;;;2.10;2.00;;;9.80;99.90;;;;;;5013831;28;20214;-78
2021/05/27 08:12:01;;;;;;;1.95;1.67;;;9.80;99.90;;;;;;5014158;28;20204;-79
2021/05/27 08:14:27;;;;;;;1.02;1.02;;;9.80;99.90;;;;;;5014098;28;20198;-76
2021/05/27 08:16:53;;;;;;;0.50;0.50;;;9.80;99.90;;;;;;5013376;28;20786;-77
2021/05/27 08:19:20;;;;;;;2.40;0.65;;;9.80;99.90;;;;;;5013366;28;20227;-76
2021/05/27 08:21:46;;;;;;;1.35;0.95;;;9.80;99.90;;;;;;5013515;28;20214;-79
2021/05/27 08:24:12;;;;;;;0.50;0.40;;;9.80;99.90;;;;;;5013342;28;20221;-78
2021/05/27 08:26:39;;;;;;;1.23;0.57;;;9.80;99.90;;;;;;5013497;28;20201;-79
2021/05/27 08:29:05;;;;;;;1.77;1.67;;;9.80;99.90;;;;;;5021286;28;20231;-76
2021/05/27 08:31:32;;;;;;;0.50;0.40;;;9.80;99.90;;;;;;5020955;28;20205;-78
2021/05/27 08:33:58;;;;;;;0.63;0.63;;;9.80;99.90;;;;;;5013165;28;20203;-77
2021/05/27 08:36:24;;;;;;;0.50;0.30;;;9.90;99.90;;;;;;5013074;28;20239;-75
2021/05/27 08:38:51;;;;;;;0.73;0.73;;;9.90;99.90;;;;;;5013215;28;20284;-77
2021/05/27 08:41:19;;;;;;;2.17;2.08;;;9.90;99.90;;;;;;5012942;28;20290;-76
2021/05/27 08:43:48;;;;;;;1.02;1.02;;;9.90;99.90;;;;;;5012577;28;20201;-75
2021/05/27 08:46:15;;;;;;;0.68;0.65;;;9.90;99.90;;;;;;5012472;28;20673;-77
2021/05/27 08:48:42;;;;;;;0.90;0.90;;;9.90;99.90;;;;;;5014257;28;20216;-79
2021/05/27 08:51:08;;;;;;;14.43;3.78;;;10.00;99.90;;;;;;5014415;28;20223;-79
2021/05/27 08:53:35;;;;;;;1.50;1.50;;;10.00;99.90;;;;;;5013850;28;20202;-77
2021/05/27 08:56:01;;;;;;;0.50;0.50;;;10.00;99.90;;;;;;5013925;28;20231;-78
2021/05/27 08:58:27;;;;;;;0.93;0.82;;;10.00;99.90;;;;;;5016652;28;20569;-79
2021/05/27 09:00:55;;;;;;;0.50;0.40;;;10.00;99.90;;;;;;5024720;28;20193;-79
2021/05/27 09:03:23;;;;;;;0.60;0.60;;;10.00;99.90;;;;;;5033007;28;20201;-78
2021/05/27 09:05:58;;;;;;;3.55;3.05;;;10.00;99.90;;;;;;5033790;28;20201;-79
2021/05/27 09:08:29;;;;;;;1.40;1.30;;;10.10;99.90;;;;;;5033346;28;20211;-79
2021/05/27 09:11:01;;;;;;;2.25;1.58;;;10.00;99.90;;;;;;5032802;28;20575;-79
2021/05/27 09:13:28;;;;;;;2.40;2.13;;;10.00;99.90;;;;;;5033488;28;20212;-80
2021/05/27 09:16:05;;;;;;;0.50;0.40;;;10.00;99.90;;;;;;5033056;28;20197;-79
2021/05/27 09:18:33;;;;;;;1.25;1.15;;;10.10;99.90;;;;;;5032896;28;20929;-78
2021/05/27 09:20:59;;;;;;;1.73;1.63;;;10.10;99.90;;;;;;5033102;28;20202;-79
2021/05/27 09:23:26;;;;;;;0.50;0.40;;;10.00;99.90;;;;;;5032571;28;20203;-79
2021/05/27 09:25:56;;;;;;;0.50;0.40;;;10.00;99.90;;;;;;5032863;28;20212;-77
2021/05/27 09:28:24;;;;;;;0.50;0.40;;;10.10;99.90;;;;;;5024767;28;20241;-79
2021/05/27 09:30:53;;;;;;;1.55;0.80;;;10.10;99.90;;;;;;5024491;28;20201;-78
2021/05/27 09:33:29;;;;;;;1.58;1.48;;;10.10;99.90;;;;;;5033372;28;20191;-74
2021/05/27 09:36:00;;;;;;;0.82;0.70;;;10.20;99.90;;;;;;5033877;28;20255;-79
2021/05/27 09:38:28;;;;;;;0.98;0.93;;;10.30;99.90;;;;;;5032512;28;20244;-78
2021/05/27 09:40:54;;;;;;;0.60;0.60;;;10.30;99.90;;;;;;5032270;28;20193;-78
2021/05/27 09:43:22;;;;;;;0.60;0.55;;;10.30;99.90;;;;;;5032311;28;20194;-77
2021/05/27 09:46:02;;;;;;;0.50;0.40;;;10.30;99.90;;;;;;5016794;28;20199;-78
2021/05/27 09:48:29;;;;;;;0.50;0.40;;;10.30;99.90;;;;;;5012311;28;20616;-78
2021/05/27 09:50:56;;;;;;;1.90;1.80;;;10.40;99.90;;;;;;5012964;28;20650;-78
2021/05/27 09:53:25;;;;;;;1.58;1.48;;;10.40;99.90;;;;;;5012687;28;20627;-78
2021/05/27 09:55:51;;;;;;;1.50;0.63;;;10.40;99.90;;;;;;5012960;28;20198;-78
2021/05/27 09:58:17;;;;;;;2.58;2.47;;;10.40;99.90;;;;;;5018163;28;20273;-79
2021/05/27 10:00:45;;;;;;;1.70;1.60;;;10.40;99.90;;;;;;5028672;28;20186;-78
2021/05/27 10:03:33;;;;;;;0.50;0.40;;;10.40;99.90;;;;;;5036452;28;20204;-78
2021/05/27 10:06:03;;;;;;;0.60;0.60;;;10.40;99.90;;;;;;5037384;28;20190;-79
2021/05/27 10:08:30;;;;;;;0.85;0.85;;;10.40;99.90;;;;;;5036890;28;20304;-79
2021/05/27 10:10:57;;;;;;;0.68;0.65;;;10.50;99.90;;;;;;5037017;28;20553;-77
2021/05/27 10:13:29;;;;;;;0.50;0.40;;;10.50;99.90;;;;;;5036569;28;20199;-81
2021/05/27 10:15:55;;;;;;;0.50;0.40;;;10.50;99.90;;;;;;5035986;28;20206;-78
2021/05/27 10:18:22;;;;;;;1.80;1.45;;;10.50;99.90;;;;;;5035801;28;20274;-80
2021/05/27 10:20:51;;;;;;;0.50;0.40;;;10.50;99.90;;;;;;5036345;28;20206;-80
2021/05/27 10:23:18;;;;;;;4.07;2.08;;;10.50;99.90;;;;;;5036113;28;20202;-78
2021/05/27 10:25:46;;;;;;;0.85;0.50;;;10.60;99.90;;;;;;5036688;28;20198;-79
2021/05/27 10:28:15;;;;;;;3.40;0.93;;;10.70;99.90;;;;;;5029012;28;20234;-76
2021/05/27 10:30:43;;;;;;;0.50;0.40;;;10.70;99.90;;;;;;5027321;28;20194;-78
2021/05/27 10:33:16;;;;;;;0.50;0.40;;;10.70;99.90;;;;;;5036084;28;20202;-78
2021/05/27 10:35:53;;;;;;;0.50;0.40;;;10.80;99.90;;;;;;5036337;28;20182;-80
2021/05/27 10:38:55;;;;;;;0.50;0.40;;;10.80;99.90;;;;;;5036064;28;20256;-78
2021/05/27 10:41:54;;;;;;;0.50;0.40;;;10.70;99.90;;;;;;5028457;28;20201;-78
2021/05/27 10:44:21;;;;;;;1.92;1.83;;;10.70;99.90;;;;;;5024052;28;20209;-78
2021/05/27 10:47:17;;;;;;;0.50;0.40;;;10.70;99.90;;;;;;5015634;28;20709;-78
2021/05/27 10:49:51;;;;;;;0.57;0.55;;;10.60;99.90;;;;;;5015180;28;20179;-79
2021/05/27 10:52:38;;;;;;;0.50;0.40;;;10.50;99.90;;;;;;5015543;28;20261;-77
2021/05/27 10:55:20;;;;;;;1.67;1.58;;;10.50;99.90;;;;;;5015927;28;20230;-79
2021/05/27 10:57:47;;;;;;;0.50;0.40;;;10.50;99.90;;;;;;5013850;28;20222;-80
2021/05/27 11:00:47;;;;;;;0.50;0.40;;;10.50;99.90;;;;;;5025210;28;20200;-79
2021/05/27 11:03:42;;;;;;;0.50;0.50;;;10.50;99.90;;;;;;5035530;28;20185;-80
2021/05/27 11:06:22;;;;;;;0.50;0.40;;;10.50;99.90;;;;;;5035257;28;20627;-80
2021/05/27 11:09:27;;;;;;;2.15;2.05;;;10.60;99.90;;;;;;5034837;28;20300;-77
2021/05/27 11:11:56;;;;;;;0.50;0.40;;;10.60;99.90;;;;;;5035087;28;20205;-79
2021/05/27 11:14:25;;;;;;;0.50;0.40;;;10.60;99.90;;;;;;5034574;28;20198;-74
2021/05/27 11:17:21;;;;;;;1.20;1.08;;;10.60;99.90;;;;;;5035360;28;20194;-80
2021/05/27 11:19:52;;;;;;;1.17;1.08;;;10.70;99.90;;;;;;5035825;28;20220;-79
2021/05/27 11:22:44;;;;;;;1.88;1.77;;;10.60;99.90;;;;;;5037003;28;20219;-77
2021/05/27 11:25:30;;;;;;;0.90;0.82;;;10.60;99.90;;;;;;5037116;28;20664;-80
2021/05/27 11:27:58;;;;;;;0.93;0.93;;;10.60;99.90;;;;;;5029957;28;20242;-80
2021/05/27 11:30:25;;;;;;;2.88;1.88;;;10.50;99.90;;;;;;5026620;28;20198;-80
2021/05/27 11:32:53;;;;;;;1.45;1.15;;;10.50;99.90;;;;;;5036542;28;20272;-80
2021/05/27 11:35:21;;;;;;;0.50;0.40;;;10.40;99.90;;;;;;5035851;28;20207;-79
2021/05/27 11:37:49;;;;;;;1.15;1.05;;;10.40;99.90;;;;;;5036855;28;20219;-80
2021/05/27 11:40:18;;;;;;;0.50;0.50;;;10.50;99.90;;;;;;5036622;28;20190;-76
2021/05/27 11:42:49;;;;;;;0.50;0.40;;;10.50;99.90;;;;;;5035937;28;20209;-80
2021/05/27 11:45:16;;;;;;;0.50;0.43;;;10.50;99.90;;;;;;5024429;28;20211;-78
2021/05/27 11:47:43;;;;;;;0.50;0.40;;;10.50;99.90;;;;;;5016230;28;20272;-79
2021/05/27 11:50:11;;;;;;;0.70;0.65;;;10.50;99.90;;;;;;5016088;28;20199;-78
2021/05/27 11:52:39;;;;;;;0.50;0.40;;;10.60;99.90;;;;;;5014870;28;20747;-79
2021/05/27 11:55:07;;;;;;;0.50;0.40;;;10.60;99.90;;;;;;5015050;28;20202;-78
2021/05/27 11:57:44;;;;;;;1.00;1.00;;;10.70;99.90;;;;;;5014504;28;20223;-78
2021/05/27 12:00:14;;;;;;;0.55;0.55;;;10.60;99.90;;;;;;5024615;28;20323;-79
2021/05/27 12:02:45;;;;;;;0.57;0.55;;;10.60;99.90;;;;;;5034917;28;20205;-79
2021/05/27 12:05:22;;;;;;;0.93;0.93;;;10.70;99.90;;;;;;5034352;28;20223;-77
2021/05/27 12:07:59;;;;;;;0.90;0.60;;;10.80;99.90;;;;;;5034056;28;20218;-78
2021/05/27 12:10:26;;;;;;;0.50;0.40;;;10.90;99.90;;;;;;5035024;28;20206;-78
2021/05/27 12:12:53;;;;;;;0.95;0.93;;;11.00;99.90;;;;;;5034623;28;20221;-77
2021/05/27 12:15:22;;;;;;;0.50;0.40;;;11.10;99.90;;;;;;5034727;28;20202;-81
2021/05/27 12:17:49;;;;;;;3.50;2.40;;;11.00;99.90;;;;;;5034325;28;20558;-79
2021/05/27 12:20:19;;;;;;;0.68;0.68;;;11.00;99.90;;;;;;5032648;28;20253;-75
2021/05/27 12:22:54;;;;;;;2.25;2.15;;;10.90;99.90;;;;;;5033633;28;20725;-79
2021/05/27 12:25:23;;;;;;;2.78;1.95;;;11.00;99.90;;;;;;5033783;28;20201;-77
2021/05/27 12:27:51;;;;;;;1.73;0.55;;;10.90;99.90;;;;;;5028238;28;20234;-79
2021/05/27 12:30:24;;;;;;;4.00;2.13;;;10.90;99.90;;;;;;5024544;28;20248;-78
2021/05/27 12:32:52;;;;;;;1.83;1.38;;;10.80;99.90;;;;;;5034202;28;20247;-77
2021/05/27 12:35:21;;;;;;;0.50;0.40;;;10.80;99.90;;;;;;5033929;28;20201;-79
2021/05/27 12:37:48;;;;;;;1.05;1.05;;;10.90;99.90;;;;;;5033770;28;20730;-79
2021/05/27 12:40:23;;;;;;;0.50;0.40;;;11.10;99.90;;;;;;5034442;28;20259;-80
2021/05/27 12:42:49;;;;;;;2.08;1.77;;;11.30;99.90;;;;;;5033689;28;20188;-79
2021/05/27 12:45:24;;;;;;;3.28;1.85;;;11.40;99.90;;;;;;5023264;28;20206;-79
2021/05/27 12:48:11;;;;;;;0.68;0.50;;;11.50;99.90;;;;;;5013880;28;20263;-78
2021/05/27 12:50:41;;;;;;;1.02;0.93;;;11.40;99.90;;;;;;5013516;28;20207;-78
2021/05/27 12:53:22;;;;;;;1.42;1.33;;;11.40;99.90;;;;;;5013950;28;20281;-78
2021/05/27 12:55:48;;;;;;;1.05;0.85;;;11.40;99.90;;;;;;5013064;28;20172;-80
2021/05/27 12:58:26;;;;;;;0.75;0.75;;;11.40;99.90;;;;;;5014261;28;20628;-76
2021/05/27 13:00:54;;;;;;;1.52;1.42;;;11.40;99.90;;;;;;5024595;28;20187;-78
2021/05/27 13:03:20;;;;;;;0.50;0.40;;;11.40;99.90;;;;;;5033040;28;20572;-79
2021/05/27 13:06:05;;;;;;;4.68;4.28;;;11.50;99.90;;;;;;5032523;28;20201;-78
2021/05/27 13:08:33;;;;;;;0.50;0.40;;;11.50;99.90;;;;;;5032490;28;20215;-78
2021/05/27 13:10:59;;;;;;;0.63;0.63;;;11.50;99.90;;;;;;5033900;28;20200;-79
2021/05/27 13:13:33;;;;;;;0.50;0.40;;;11.50;99.90;;;;;;5032830;28;20957;-78